Aviation Digital Data Service (ADDS)

Output produced by METARs form (1216 UTC 23 March 2017)
found at http://aviationweather.gov/adds/metars/
 
KSTS 231153Z AUTO 00000KT 10SM CLR 04/04 A3013 RMK AO2 SLP197 70007 T00440039 10083 20039 58002
KSTS 231120Z 2312/2412 VRB03KT P6SM SKC 
     FM232000 19008KT P6SM SCT120 BKN150 
     FM240000 21010KT P6SM VCSH SCT030 BKN080 OVC120 
     FM240400 16005KT P6SM -RA SCT025 OVC050 
     FM240800 15005KT 4SM RA SCT025 OVC050